sensor_id;sensor_type;location;lat;lon;timestamp;P1;durP1;ratioP1;P2;durP2;ratioP2
75012;SDS011;63567;49.956;20.130;2023-05-08T00:01:03;4.60;;;2.97;;
75012;SDS011;63567;49.956;20.130;2023-05-08T00:03:28;6.32;;;3.90;;
75012;SDS011;63567;49.956;20.130;2023-05-08T00:05:54;5.90;;;2.83;;
75012;SDS011;63567;49.956;20.130;2023-05-08T00:08:19;5.68;;;3.40;;
75012;SDS011;63567;49.956;20.130;2023-05-08T00:10:45;4.17;;;2.97;;
75012;SDS011;63567;49.956;20.130;2023-05-08T00:13:10;5.22;;;2.97;;
75012;SDS011;63567;49.956;20.130;2023-05-08T00:15:36;6.13;;;3.30;;
75012;SDS011;63567;49.956;20.130;2023-05-08T00:18:01;5.95;;;3.10;;
75012;SDS011;63567;49.956;20.130;2023-05-08T00:20:26;6.50;;;2.80;;
75012;SDS011;63567;49.956;20.130;2023-05-08T00:22:52;5.38;;;3.30;;
75012;SDS011;63567;49.956;20.130;2023-05-08T00:25:18;6.05;;;3.20;;
75012;SDS011;63567;49.956;20.130;2023-05-08T00:27:43;5.17;;;3.27;;
75012;SDS011;63567;49.956;20.130;2023-05-08T00:30:09;4.90;;;2.80;;
75012;SDS011;63567;49.956;20.130;2023-05-08T00:32:35;5.50;;;3.00;;
75012;SDS011;63567;49.956;20.130;2023-05-08T00:35:00;4.30;;;2.65;;
75012;SDS011;63567;49.956;20.130;2023-05-08T00:37:25;5.47;;;3.00;;
75012;SDS011;63567;49.956;20.130;2023-05-08T00:39:51;5.60;;;3.27;;
75012;SDS011;63567;49.956;20.130;2023-05-08T00:42:16;5.73;;;3.17;;
75012;SDS011;63567;49.956;20.130;2023-05-08T00:44:41;6.47;;;3.23;;
75012;SDS011;63567;49.956;20.130;2023-05-08T00:47:07;6.13;;;3.03;;
75012;SDS011;63567;49.956;20.130;2023-05-08T00:49:32;4.75;;;2.63;;
75012;SDS011;63567;49.956;20.130;2023-05-08T00:51:59;5.25;;;3.00;;
75012;SDS011;63567;49.956;20.130;2023-05-08T00:54:26;4.22;;;2.85;;
75012;SDS011;63567;49.956;20.130;2023-05-08T00:56:53;4.20;;;3.05;;
75012;SDS011;63567;49.956;20.130;2023-05-08T00:59:19;3.88;;;2.80;;
75012;SDS011;63567;49.956;20.130;2023-05-08T01:01:46;4.65;;;2.70;;
75012;SDS011;63567;49.956;20.130;2023-05-08T01:04:13;3.65;;;2.70;;
75012;SDS011;63567;49.956;20.130;2023-05-08T01:06:38;4.47;;;2.70;;
75012;SDS011;63567;49.956;20.130;2023-05-08T01:09:04;6.60;;;2.90;;
75012;SDS011;63567;49.956;20.130;2023-05-08T01:11:31;3.40;;;2.30;;
75012;SDS011;63567;49.956;20.130;2023-05-08T01:14:11;4.20;;;2.10;;
75012;SDS011;63567;49.956;20.130;2023-05-08T01:17:08;4.20;;;2.35;;
75012;SDS011;63567;49.956;20.130;2023-05-08T01:31:31;4.93;;;2.80;;
75012;SDS011;63567;49.956;20.130;2023-05-08T01:34:10;4.72;;;2.92;;
75012;SDS011;63567;49.956;20.130;2023-05-08T01:37:00;4.20;;;2.90;;
75012;SDS011;63567;49.956;20.130;2023-05-08T01:39:32;4.95;;;2.88;;
75012;SDS011;63567;49.956;20.130;2023-05-08T01:42:05;4.82;;;3.20;;
75012;SDS011;63567;49.956;20.130;2023-05-08T01:44:40;4.22;;;2.92;;
75012;SDS011;63567;49.956;20.130;2023-05-08T01:47:11;4.97;;;2.65;;
75012;SDS011;63567;49.956;20.130;2023-05-08T01:49:46;5.82;;;2.92;;
75012;SDS011;63567;49.956;20.130;2023-05-08T01:52:15;4.70;;;3.13;;
75012;SDS011;63567;49.956;20.130;2023-05-08T01:54:56;5.20;;;2.95;;
75012;SDS011;63567;49.956;20.130;2023-05-08T01:57:24;5.47;;;2.90;;
75012;SDS011;63567;49.956;20.130;2023-05-08T01:59:53;5.80;;;3.08;;
75012;SDS011;63567;49.956;20.130;2023-05-08T02:02:20;5.05;;;2.85;;
75012;SDS011;63567;49.956;20.130;2023-05-08T02:04:47;5.45;;;3.35;;
75012;SDS011;63567;49.956;20.130;2023-05-08T02:07:14;4.75;;;2.60;;
75012;SDS011;63567;49.956;20.130;2023-05-08T02:09:41;4.80;;;2.85;;
75012;SDS011;63567;49.956;20.130;2023-05-08T02:12:08;4.60;;;3.20;;
75012;SDS011;63567;49.956;20.130;2023-05-08T02:14:34;4.90;;;3.05;;
75012;SDS011;63567;49.956;20.130;2023-05-08T02:17:01;4.72;;;2.97;;
75012;SDS011;63567;49.956;20.130;2023-05-08T02:19:28;4.20;;;2.97;;
75012;SDS011;63567;49.956;20.130;2023-05-08T02:21:54;5.47;;;3.08;;
75012;SDS011;63567;49.956;20.130;2023-05-08T02:24:22;5.18;;;2.90;;
75012;SDS011;63567;49.956;20.130;2023-05-08T02:26:48;5.22;;;2.70;;
75012;SDS011;63567;49.956;20.130;2023-05-08T02:29:15;6.00;;;3.03;;
75012;SDS011;63567;49.956;20.130;2023-05-08T02:31:41;5.65;;;3.08;;
75012;SDS011;63567;49.956;20.130;2023-05-08T02:34:09;5.03;;;2.75;;
75012;SDS011;63567;49.956;20.130;2023-05-08T02:36:36;3.78;;;2.50;;
75012;SDS011;63567;49.956;20.130;2023-05-08T02:39:03;5.15;;;3.10;;
75012;SDS011;63567;49.956;20.130;2023-05-08T02:41:30;4.70;;;2.92;;
75012;SDS011;63567;49.956;20.130;2023-05-08T02:43:57;6.53;;;3.50;;
75012;SDS011;63567;49.956;20.130;2023-05-08T02:46:38;4.78;;;3.15;;
75012;SDS011;63567;49.956;20.130;2023-05-08T02:49:12;4.25;;;2.72;;
75012;SDS011;63567;49.956;20.130;2023-05-08T02:51:48;5.55;;;3.38;;
75012;SDS011;63567;49.956;20.130;2023-05-08T03:02:41;5.47;;;3.72;;
75012;SDS011;63567;49.956;20.130;2023-05-08T03:05:13;4.85;;;3.08;;
75012;SDS011;63567;49.956;20.130;2023-05-08T03:10:12;5.28;;;3.30;;
75012;SDS011;63567;49.956;20.130;2023-05-08T03:12:43;5.35;;;3.22;;
75012;SDS011;63567;49.956;20.130;2023-05-08T03:17:57;5.20;;;3.20;;
75012;SDS011;63567;49.956;20.130;2023-05-08T03:20:32;5.63;;;3.50;;
75012;SDS011;63567;49.956;20.130;2023-05-08T03:23:03;6.38;;;3.65;;
75012;SDS011;63567;49.956;20.130;2023-05-08T03:25:30;5.70;;;3.60;;
75012;SDS011;63567;49.956;20.130;2023-05-08T03:27:58;5.80;;;3.60;;
75012;SDS011;63567;49.956;20.130;2023-05-08T03:30:24;6.40;;;3.65;;
75012;SDS011;63567;49.956;20.130;2023-05-08T03:32:51;6.28;;;3.60;;
75012;SDS011;63567;49.956;20.130;2023-05-08T03:35:18;6.70;;;3.47;;
75012;SDS011;63567;49.956;20.130;2023-05-08T03:37:45;5.80;;;3.30;;
75012;SDS011;63567;49.956;20.130;2023-05-08T03:40:11;5.35;;;3.40;;
75012;SDS011;63567;49.956;20.130;2023-05-08T03:42:36;5.55;;;3.13;;
75012;SDS011;63567;49.956;20.130;2023-05-08T03:45:04;6.55;;;3.53;;
75012;SDS011;63567;49.956;20.130;2023-05-08T03:47:31;6.38;;;3.58;;
75012;SDS011;63567;49.956;20.130;2023-05-08T03:49:59;5.88;;;3.55;;
75012;SDS011;63567;49.956;20.130;2023-05-08T03:52:24;6.22;;;3.88;;
75012;SDS011;63567;49.956;20.130;2023-05-08T03:54:50;6.23;;;3.43;;
75012;SDS011;63567;49.956;20.130;2023-05-08T03:57:15;6.30;;;3.53;;
75012;SDS011;63567;49.956;20.130;2023-05-08T03:59:41;6.00;;;3.75;;
75012;SDS011;63567;49.956;20.130;2023-05-08T04:02:32;6.13;;;3.28;;
75012;SDS011;63567;49.956;20.130;2023-05-08T04:05:24;6.43;;;3.83;;
75012;SDS011;63567;49.956;20.130;2023-05-08T04:07:59;6.18;;;3.50;;
75012;SDS011;63567;49.956;20.130;2023-05-08T04:10:33;5.85;;;3.58;;
75012;SDS011;63567;49.956;20.130;2023-05-08T04:13:14;5.35;;;3.67;;
75012;SDS011;63567;49.956;20.130;2023-05-08T04:15:44;6.30;;;3.67;;
75012;SDS011;63567;49.956;20.130;2023-05-08T04:18:15;5.93;;;3.38;;
75012;SDS011;63567;49.956;20.130;2023-05-08T04:20:44;6.32;;;3.55;;
75012;SDS011;63567;49.956;20.130;2023-05-08T04:23:13;5.28;;;3.45;;
75012;SDS011;63567;49.956;20.130;2023-05-08T04:25:41;6.68;;;3.10;;
75012;SDS011;63567;49.956;20.130;2023-05-08T04:28:08;6.03;;;3.28;;
75012;SDS011;63567;49.956;20.130;2023-05-08T04:30:34;6.30;;;3.25;;
75012;SDS011;63567;49.956;20.130;2023-05-08T04:33:01;5.60;;;3.83;;
75012;SDS011;63567;49.956;20.130;2023-05-08T04:35:27;6.47;;;3.35;;
75012;SDS011;63567;49.956;20.130;2023-05-08T04:37:53;6.10;;;3.55;;
75012;SDS011;63567;49.956;20.130;2023-05-08T04:40:19;6.75;;;3.63;;
75012;SDS011;63567;49.956;20.130;2023-05-08T04:42:44;5.10;;;3.22;;
75012;SDS011;63567;49.956;20.130;2023-05-08T04:45:11;5.18;;;3.33;;
75012;SDS011;63567;49.956;20.130;2023-05-08T04:47:37;6.13;;;3.50;;
75012;SDS011;63567;49.956;20.130;2023-05-08T04:50:02;5.75;;;3.45;;
75012;SDS011;63567;49.956;20.130;2023-05-08T04:52:28;5.45;;;3.20;;
75012;SDS011;63567;49.956;20.130;2023-05-08T04:54:53;5.13;;;3.22;;
75012;SDS011;63567;49.956;20.130;2023-05-08T04:57:18;6.83;;;3.80;;
75012;SDS011;63567;49.956;20.130;2023-05-08T04:59:44;5.83;;;3.53;;
75012;SDS011;63567;49.956;20.130;2023-05-08T05:02:09;6.38;;;3.60;;
75012;SDS011;63567;49.956;20.130;2023-05-08T05:04:35;5.78;;;3.40;;
75012;SDS011;63567;49.956;20.130;2023-05-08T05:07:03;5.30;;;3.60;;
75012;SDS011;63567;49.956;20.130;2023-05-08T05:09:29;4.65;;;3.22;;
75012;SDS011;63567;49.956;20.130;2023-05-08T05:11:54;6.18;;;3.80;;
75012;SDS011;63567;49.956;20.130;2023-05-08T05:14:20;6.05;;;3.47;;
75012;SDS011;63567;49.956;20.130;2023-05-08T05:16:45;7.00;;;4.20;;
75012;SDS011;63567;49.956;20.130;2023-05-08T05:19:11;6.10;;;3.42;;
75012;SDS011;63567;49.956;20.130;2023-05-08T05:21:37;7.15;;;3.95;;
75012;SDS011;63567;49.956;20.130;2023-05-08T05:24:03;6.35;;;3.42;;
75012;SDS011;63567;49.956;20.130;2023-05-08T05:26:29;6.00;;;3.67;;
75012;SDS011;63567;49.956;20.130;2023-05-08T05:28:54;6.33;;;3.63;;
75012;SDS011;63567;49.956;20.130;2023-05-08T05:31:19;5.65;;;3.20;;
75012;SDS011;63567;49.956;20.130;2023-05-08T05:33:45;7.10;;;3.75;;
75012;SDS011;63567;49.956;20.130;2023-05-08T05:36:10;6.78;;;3.40;;
75012;SDS011;63567;49.956;20.130;2023-05-08T05:38:36;5.07;;;3.35;;
75012;SDS011;63567;49.956;20.130;2023-05-08T05:41:01;5.93;;;3.50;;
75012;SDS011;63567;49.956;20.130;2023-05-08T05:43:27;6.93;;;4.10;;
75012;SDS011;63567;49.956;20.130;2023-05-08T05:45:52;6.60;;;3.55;;
75012;SDS011;63567;49.956;20.130;2023-05-08T05:48:19;5.47;;;3.58;;
75012;SDS011;63567;49.956;20.130;2023-05-08T05:50:45;6.60;;;3.67;;
75012;SDS011;63567;49.956;20.130;2023-05-08T05:53:10;6.30;;;3.50;;
75012;SDS011;63567;49.956;20.130;2023-05-08T05:55:36;8.73;;;3.70;;
75012;SDS011;63567;49.956;20.130;2023-05-08T05:58:02;6.50;;;3.45;;
75012;SDS011;63567;49.956;20.130;2023-05-08T06:00:27;5.82;;;3.40;;
75012;SDS011;63567;49.956;20.130;2023-05-08T06:02:54;6.82;;;3.50;;
75012;SDS011;63567;49.956;20.130;2023-05-08T06:05:19;7.22;;;3.80;;
75012;SDS011;63567;49.956;20.130;2023-05-08T06:07:45;5.77;;;3.63;;
75012;SDS011;63567;49.956;20.130;2023-05-08T06:10:10;5.50;;;3.25;;
75012;SDS011;63567;49.956;20.130;2023-05-08T06:12:36;8.23;;;3.47;;
75012;SDS011;63567;49.956;20.130;2023-05-08T06:15:01;6.10;;;3.27;;
75012;SDS011;63567;49.956;20.130;2023-05-08T06:17:27;6.15;;;3.33;;
75012;SDS011;63567;49.956;20.130;2023-05-08T06:19:52;6.35;;;3.30;;
75012;SDS011;63567;49.956;20.130;2023-05-08T06:22:19;5.50;;;3.20;;
75012;SDS011;63567;49.956;20.130;2023-05-08T06:24:51;6.97;;;3.90;;
75012;SDS011;63567;49.956;20.130;2023-05-08T06:27:19;5.18;;;3.25;;
75012;SDS011;63567;49.956;20.130;2023-05-08T06:29:46;6.03;;;3.60;;
75012;SDS011;63567;49.956;20.130;2023-05-08T06:32:17;5.88;;;3.38;;
75012;SDS011;63567;49.956;20.130;2023-05-08T06:34:42;5.68;;;3.20;;
75012;SDS011;63567;49.956;20.130;2023-05-08T06:37:08;5.70;;;3.22;;
75012;SDS011;63567;49.956;20.130;2023-05-08T06:39:33;5.30;;;3.40;;
75012;SDS011;63567;49.956;20.130;2023-05-08T06:41:58;5.07;;;3.10;;
75012;SDS011;63567;49.956;20.130;2023-05-08T06:44:24;5.83;;;3.60;;
75012;SDS011;63567;49.956;20.130;2023-05-08T06:46:49;5.90;;;3.35;;
75012;SDS011;63567;49.956;20.130;2023-05-08T06:49:14;5.53;;;3.63;;
75012;SDS011;63567;49.956;20.130;2023-05-08T06:51:40;5.03;;;2.90;;
75012;SDS011;63567;49.956;20.130;2023-05-08T06:54:05;6.18;;;3.25;;
75012;SDS011;63567;49.956;20.130;2023-05-08T06:56:32;4.50;;;3.10;;
75012;SDS011;63567;49.956;20.130;2023-05-08T06:58:59;5.35;;;3.28;;
75012;SDS011;63567;49.956;20.130;2023-05-08T07:01:25;5.57;;;3.53;;
75012;SDS011;63567;49.956;20.130;2023-05-08T07:03:50;5.63;;;3.70;;
75012;SDS011;63567;49.956;20.130;2023-05-08T07:06:15;5.57;;;3.20;;
75012;SDS011;63567;49.956;20.130;2023-05-08T07:08:41;6.50;;;2.90;;
75012;SDS011;63567;49.956;20.130;2023-05-08T07:11:06;6.15;;;3.20;;
75012;SDS011;63567;49.956;20.130;2023-05-08T07:13:34;5.80;;;3.30;;
75012;SDS011;63567;49.956;20.130;2023-05-08T07:15:59;5.57;;;3.50;;
75012;SDS011;63567;49.956;20.130;2023-05-08T07:18:25;5.90;;;3.30;;
75012;SDS011;63567;49.956;20.130;2023-05-08T07:20:50;4.13;;;2.83;;
75012;SDS011;63567;49.956;20.130;2023-05-08T07:23:16;4.75;;;2.90;;
75012;SDS011;63567;49.956;20.130;2023-05-08T07:25:41;5.90;;;3.30;;
75012;SDS011;63567;49.956;20.130;2023-05-08T07:28:06;5.30;;;3.00;;
75012;SDS011;63567;49.956;20.130;2023-05-08T07:30:32;5.13;;;3.25;;
75012;SDS011;63567;49.956;20.130;2023-05-08T07:32:57;5.13;;;3.03;;
75012;SDS011;63567;49.956;20.130;2023-05-08T07:35:23;5.63;;;2.92;;
75012;SDS011;63567;49.956;20.130;2023-05-08T07:37:48;5.15;;;2.70;;
75012;SDS011;63567;49.956;20.130;2023-05-08T07:40:14;5.45;;;3.08;;
75012;SDS011;63567;49.956;20.130;2023-05-08T07:42:42;4.57;;;3.10;;
75012;SDS011;63567;49.956;20.130;2023-05-08T07:45:08;4.90;;;3.10;;
75012;SDS011;63567;49.956;20.130;2023-05-08T07:47:35;5.78;;;2.97;;
75012;SDS011;63567;49.956;20.130;2023-05-08T07:50:01;5.63;;;3.53;;
75012;SDS011;63567;49.956;20.130;2023-05-08T07:52:27;5.00;;;3.05;;
75012;SDS011;63567;49.956;20.130;2023-05-08T07:54:52;4.87;;;3.03;;
75012;SDS011;63567;49.956;20.130;2023-05-08T07:57:18;5.03;;;3.33;;
75012;SDS011;63567;49.956;20.130;2023-05-08T07:59:43;5.07;;;2.80;;
75012;SDS011;63567;49.956;20.130;2023-05-08T08:02:08;4.53;;;2.77;;
75012;SDS011;63567;49.956;20.130;2023-05-08T08:04:34;4.80;;;2.95;;
75012;SDS011;63567;49.956;20.130;2023-05-08T08:06:59;5.67;;;2.90;;
75012;SDS011;63567;49.956;20.130;2023-05-08T08:09:24;5.83;;;3.10;;
75012;SDS011;63567;49.956;20.130;2023-05-08T08:11:50;5.03;;;3.08;;
75012;SDS011;63567;49.956;20.130;2023-05-08T08:14:15;5.40;;;3.20;;
75012;SDS011;63567;49.956;20.130;2023-05-08T08:16:40;4.03;;;2.90;;
75012;SDS011;63567;49.956;20.130;2023-05-08T08:19:09;4.78;;;2.80;;
75012;SDS011;63567;49.956;20.130;2023-05-08T08:21:34;4.10;;;2.33;;
75012;SDS011;63567;49.956;20.130;2023-05-08T08:24:00;5.00;;;2.80;;
75012;SDS011;63567;49.956;20.130;2023-05-08T08:26:25;5.20;;;2.88;;
75012;SDS011;63567;49.956;20.130;2023-05-08T08:28:51;4.00;;;2.80;;
75012;SDS011;63567;49.956;20.130;2023-05-08T08:31:16;3.90;;;2.60;;
75012;SDS011;63567;49.956;20.130;2023-05-08T08:33:43;5.07;;;2.75;;
75012;SDS011;63567;49.956;20.130;2023-05-08T08:36:12;5.10;;;2.80;;
75012;SDS011;63567;49.956;20.130;2023-05-08T08:38:38;4.75;;;2.80;;
75012;SDS011;63567;49.956;20.130;2023-05-08T08:41:03;4.27;;;2.90;;
75012;SDS011;63567;49.956;20.130;2023-05-08T08:43:29;5.13;;;3.03;;
75012;SDS011;63567;49.956;20.130;2023-05-08T08:45:55;4.78;;;2.53;;
75012;SDS011;63567;49.956;20.130;2023-05-08T08:48:20;4.70;;;2.83;;
75012;SDS011;63567;49.956;20.130;2023-05-08T08:50:58;4.10;;;2.70;;
75012;SDS011;63567;49.956;20.130;2023-05-08T08:53:29;3.92;;;2.67;;
75012;SDS011;63567;49.956;20.130;2023-05-08T08:56:00;4.93;;;2.97;;
75012;SDS011;63567;49.956;20.130;2023-05-08T08:58:30;5.72;;;3.28;;
75012;SDS011;63567;49.956;20.130;2023-05-08T09:01:02;4.88;;;2.75;;
75012;SDS011;63567;49.956;20.130;2023-05-08T09:03:29;6.43;;;3.20;;
75012;SDS011;63567;49.956;20.130;2023-05-08T09:05:58;4.28;;;2.95;;
75012;SDS011;63567;49.956;20.130;2023-05-08T09:08:24;5.30;;;3.20;;
75012;SDS011;63567;49.956;20.130;2023-05-08T09:10:50;3.78;;;2.63;;
75012;SDS011;63567;49.956;20.130;2023-05-08T09:13:18;3.92;;;2.78;;
75012;SDS011;63567;49.956;20.130;2023-05-08T09:15:44;3.50;;;2.50;;
75012;SDS011;63567;49.956;20.130;2023-05-08T09:18:09;4.23;;;3.10;;
75012;SDS011;63567;49.956;20.130;2023-05-08T09:20:34;5.23;;;2.90;;
75012;SDS011;63567;49.956;20.130;2023-05-08T09:23:00;5.30;;;3.00;;
75012;SDS011;63567;49.956;20.130;2023-05-08T09:25:44;6.03;;;3.20;;
75012;SDS011;63567;49.956;20.130;2023-05-08T09:28:28;4.50;;;2.90;;
75012;SDS011;63567;49.956;20.130;2023-05-08T09:30:55;4.28;;;2.85;;
75012;SDS011;63567;49.956;20.130;2023-05-08T09:33:26;4.15;;;2.63;;
75012;SDS011;63567;49.956;20.130;2023-05-08T09:35:52;5.53;;;3.08;;
75012;SDS011;63567;49.956;20.130;2023-05-08T09:38:37;5.03;;;2.55;;
75012;SDS011;63567;49.956;20.130;2023-05-08T09:43:36;4.53;;;2.65;;
75012;SDS011;63567;49.956;20.130;2023-05-08T09:48:51;5.25;;;3.10;;
75012;SDS011;63567;49.956;20.130;2023-05-08T09:51:17;4.82;;;2.72;;
75012;SDS011;63567;49.956;20.130;2023-05-08T09:53:43;5.57;;;3.30;;
75012;SDS011;63567;49.956;20.130;2023-05-08T09:56:09;5.85;;;3.17;;
75012;SDS011;63567;49.956;20.130;2023-05-08T09:58:38;6.00;;;3.00;;
75012;SDS011;63567;49.956;20.130;2023-05-08T10:01:05;4.45;;;2.67;;
75012;SDS011;63567;49.956;20.130;2023-05-08T10:03:49;5.35;;;2.90;;
75012;SDS011;63567;49.956;20.130;2023-05-08T10:06:15;4.22;;;2.50;;
75012;SDS011;63567;49.956;20.130;2023-05-08T10:08:40;5.43;;;2.97;;
75012;SDS011;63567;49.956;20.130;2023-05-08T10:11:16;5.30;;;3.00;;
75012;SDS011;63567;49.956;20.130;2023-05-08T10:13:45;5.75;;;2.80;;
75012;SDS011;63567;49.956;20.130;2023-05-08T10:16:15;6.47;;;3.30;;
75012;SDS011;63567;49.956;20.130;2023-05-08T10:18:48;5.78;;;3.92;;
75012;SDS011;63567;49.956;20.130;2023-05-08T10:21:15;8.15;;;3.50;;
75012;SDS011;63567;49.956;20.130;2023-05-08T10:23:42;5.82;;;3.60;;
75012;SDS011;63567;49.956;20.130;2023-05-08T10:26:26;6.32;;;3.72;;
75012;SDS011;63567;49.956;20.130;2023-05-08T10:28:58;6.63;;;3.47;;
75012;SDS011;63567;49.956;20.130;2023-05-08T10:31:33;5.55;;;3.92;;
75012;SDS011;63567;49.956;20.130;2023-05-08T10:34:00;7.00;;;3.60;;
75012;SDS011;63567;49.956;20.130;2023-05-08T10:36:27;6.85;;;3.33;;
75012;SDS011;63567;49.956;20.130;2023-05-08T10:38:55;5.70;;;3.40;;
75012;SDS011;63567;49.956;20.130;2023-05-08T10:41:22;6.50;;;3.60;;
75012;SDS011;63567;49.956;20.130;2023-05-08T10:43:49;6.20;;;4.00;;
75012;SDS011;63567;49.956;20.130;2023-05-08T10:49:02;5.70;;;3.58;;
75012;SDS011;63567;49.956;20.130;2023-05-08T10:51:46;6.32;;;3.63;;
75012;SDS011;63567;49.956;20.130;2023-05-08T10:57:05;6.28;;;3.28;;
75012;SDS011;63567;49.956;20.130;2023-05-08T10:59:36;5.25;;;3.42;;
75012;SDS011;63567;49.956;20.130;2023-05-08T11:02:05;5.45;;;3.05;;
75012;SDS011;63567;49.956;20.130;2023-05-08T11:04:32;5.35;;;3.00;;
75012;SDS011;63567;49.956;20.130;2023-05-08T11:06:58;4.95;;;3.10;;
75012;SDS011;63567;49.956;20.130;2023-05-08T11:09:28;4.13;;;2.85;;
75012;SDS011;63567;49.956;20.130;2023-05-08T11:12:01;4.72;;;2.85;;
75012;SDS011;63567;49.956;20.130;2023-05-08T11:14:32;4.72;;;3.20;;
75012;SDS011;63567;49.956;20.130;2023-05-08T11:19:25;4.50;;;3.07;;
75012;SDS011;63567;49.956;20.130;2023-05-08T11:24:38;4.35;;;2.75;;
75012;SDS011;63567;49.956;20.130;2023-05-08T11:27:37;5.35;;;3.08;;
75012;SDS011;63567;49.956;20.130;2023-05-08T11:35:40;4.97;;;2.73;;
75012;SDS011;63567;49.956;20.130;2023-05-08T11:40:54;5.05;;;2.80;;
75012;SDS011;63567;49.956;20.130;2023-05-08T11:43:25;6.35;;;3.20;;
75012;SDS011;63567;49.956;20.130;2023-05-08T11:45:51;3.85;;;2.47;;
75012;SDS011;63567;49.956;20.130;2023-05-08T11:48:18;5.05;;;2.75;;
75012;SDS011;63567;49.956;20.130;2023-05-08T11:50:44;4.90;;;2.60;;
75012;SDS011;63567;49.956;20.130;2023-05-08T11:53:10;5.13;;;2.70;;
75012;SDS011;63567;49.956;20.130;2023-05-08T11:55:36;4.78;;;2.55;;
75012;SDS011;63567;49.956;20.130;2023-05-08T11:58:10;4.40;;;2.58;;
75012;SDS011;63567;49.956;20.130;2023-05-08T12:00:40;5.72;;;2.55;;
75012;SDS011;63567;49.956;20.130;2023-05-08T12:03:10;3.60;;;2.22;;
75012;SDS011;63567;49.956;20.130;2023-05-08T12:05:36;4.38;;;2.28;;
75012;SDS011;63567;49.956;20.130;2023-05-08T12:08:02;3.47;;;2.38;;
75012;SDS011;63567;49.956;20.130;2023-05-08T12:10:30;3.67;;;2.58;;
75012;SDS011;63567;49.956;20.130;2023-05-08T12:12:56;3.33;;;2.33;;
75012;SDS011;63567;49.956;20.130;2023-05-08T12:15:21;4.18;;;2.47;;
75012;SDS011;63567;49.956;20.130;2023-05-08T12:17:46;4.27;;;2.53;;
75012;SDS011;63567;49.956;20.130;2023-05-08T12:20:17;4.00;;;2.33;;
75012;SDS011;63567;49.956;20.130;2023-05-08T12:22:52;4.55;;;2.30;;
75012;SDS011;63567;49.956;20.130;2023-05-08T12:25:18;3.67;;;2.65;;
75012;SDS011;63567;49.956;20.130;2023-05-08T12:27:44;4.00;;;2.60;;
75012;SDS011;63567;49.956;20.130;2023-05-08T12:30:11;5.18;;;2.78;;
75012;SDS011;63567;49.956;20.130;2023-05-08T12:32:39;3.03;;;2.13;;
75012;SDS011;63567;49.956;20.130;2023-05-08T12:35:06;4.07;;;2.10;;
75012;SDS011;63567;49.956;20.130;2023-05-08T12:37:33;3.53;;;2.00;;
75012;SDS011;63567;49.956;20.130;2023-05-08T12:39:58;3.80;;;2.13;;
75012;SDS011;63567;49.956;20.130;2023-05-08T12:45:16;3.47;;;1.95;;
75012;SDS011;63567;49.956;20.130;2023-05-08T12:47:45;3.58;;;1.88;;
75012;SDS011;63567;49.956;20.130;2023-05-08T12:50:17;3.58;;;2.10;;
75012;SDS011;63567;49.956;20.130;2023-05-08T12:52:47;3.75;;;2.28;;
75012;SDS011;63567;49.956;20.130;2023-05-08T12:55:28;3.20;;;1.73;;
75012;SDS011;63567;49.956;20.130;2023-05-08T12:58:02;3.13;;;1.90;;
75012;SDS011;63567;49.956;20.130;2023-05-08T13:00:37;3.13;;;2.08;;
75012;SDS011;63567;49.956;20.130;2023-05-08T13:03:04;4.13;;;2.17;;
75012;SDS011;63567;49.956;20.130;2023-05-08T13:05:32;3.58;;;2.53;;
75012;SDS011;63567;49.956;20.130;2023-05-08T13:08:05;3.40;;;1.70;;
75012;SDS011;63567;49.956;20.130;2023-05-08T13:10:50;4.35;;;1.92;;
75012;SDS011;63567;49.956;20.130;2023-05-08T13:13:22;3.10;;;1.75;;
75012;SDS011;63567;49.956;20.130;2023-05-08T13:15:49;2.90;;;1.67;;
75012;SDS011;63567;49.956;20.130;2023-05-08T13:18:15;2.92;;;1.98;;
75012;SDS011;63567;49.956;20.130;2023-05-08T13:20:41;3.22;;;2.05;;
75012;SDS011;63567;49.956;20.130;2023-05-08T13:23:07;3.90;;;2.28;;
75012;SDS011;63567;49.956;20.130;2023-05-08T13:25:37;3.70;;;2.20;;
75012;SDS011;63567;49.956;20.130;2023-05-08T13:28:04;4.55;;;2.13;;
75012;SDS011;63567;49.956;20.130;2023-05-08T13:30:31;3.63;;;2.03;;
75012;SDS011;63567;49.956;20.130;2023-05-08T13:32:57;2.75;;;2.00;;
75012;SDS011;63567;49.956;20.130;2023-05-08T13:35:22;3.47;;;1.97;;
75012;SDS011;63567;49.956;20.130;2023-05-08T13:37:49;3.70;;;1.98;;
75012;SDS011;63567;49.956;20.130;2023-05-08T13:40:15;3.65;;;2.00;;
75012;SDS011;63567;49.956;20.130;2023-05-08T13:42:40;3.28;;;2.00;;
75012;SDS011;63567;49.956;20.130;2023-05-08T13:45:06;4.35;;;2.13;;
75012;SDS011;63567;49.956;20.130;2023-05-08T13:47:34;3.33;;;2.20;;
75012;SDS011;63567;49.956;20.130;2023-05-08T13:50:00;3.25;;;2.00;;
75012;SDS011;63567;49.956;20.130;2023-05-08T13:52:25;3.70;;;2.40;;
75012;SDS011;63567;49.956;20.130;2023-05-08T13:54:53;6.03;;;1.95;;
75012;SDS011;63567;49.956;20.130;2023-05-08T13:57:18;3.63;;;1.98;;
75012;SDS011;63567;49.956;20.130;2023-05-08T13:59:44;3.00;;;1.70;;
75012;SDS011;63567;49.956;20.130;2023-05-08T14:02:09;3.13;;;1.80;;
75012;SDS011;63567;49.956;20.130;2023-05-08T14:04:35;4.35;;;1.95;;
75012;SDS011;63567;49.956;20.130;2023-05-08T14:07:00;2.80;;;1.80;;
75012;SDS011;63567;49.956;20.130;2023-05-08T14:09:25;3.30;;;2.10;;
75012;SDS011;63567;49.956;20.130;2023-05-08T14:11:51;3.00;;;1.83;;
75012;SDS011;63567;49.956;20.130;2023-05-08T14:14:16;3.33;;;1.83;;
75012;SDS011;63567;49.956;20.130;2023-05-08T14:16:41;3.83;;;2.20;;
75012;SDS011;63567;49.956;20.130;2023-05-08T14:19:07;4.72;;;2.17;;
75012;SDS011;63567;49.956;20.130;2023-05-08T14:21:32;3.30;;;1.93;;
75012;SDS011;63567;49.956;20.130;2023-05-08T14:23:58;3.97;;;2.22;;
75012;SDS011;63567;49.956;20.130;2023-05-08T14:26:25;3.20;;;1.90;;
75012;SDS011;63567;49.956;20.130;2023-05-08T14:28:50;2.95;;;2.03;;
75012;SDS011;63567;49.956;20.130;2023-05-08T14:31:15;3.23;;;1.90;;
75012;SDS011;63567;49.956;20.130;2023-05-08T14:33:41;4.40;;;1.93;;
75012;SDS011;63567;49.956;20.130;2023-05-08T14:36:06;3.93;;;2.30;;
75012;SDS011;63567;49.956;20.130;2023-05-08T14:38:32;3.28;;;1.85;;
75012;SDS011;63567;49.956;20.130;2023-05-08T14:40:57;4.63;;;2.17;;
75012;SDS011;63567;49.956;20.130;2023-05-08T14:43:23;3.33;;;2.17;;
75012;SDS011;63567;49.956;20.130;2023-05-08T14:45:48;3.13;;;2.03;;
75012;SDS011;63567;49.956;20.130;2023-05-08T14:48:13;4.07;;;2.27;;
75012;SDS011;63567;49.956;20.130;2023-05-08T14:50:39;4.32;;;1.80;;
75012;SDS011;63567;49.956;20.130;2023-05-08T14:53:04;3.45;;;2.30;;
75012;SDS011;63567;49.956;20.130;2023-05-08T14:55:30;4.50;;;2.13;;
75012;SDS011;63567;49.956;20.130;2023-05-08T14:57:55;3.97;;;2.13;;
75012;SDS011;63567;49.956;20.130;2023-05-08T15:00:21;3.60;;;2.20;;
75012;SDS011;63567;49.956;20.130;2023-05-08T15:02:46;3.75;;;2.53;;
75012;SDS011;63567;49.956;20.130;2023-05-08T15:05:12;3.80;;;2.53;;
75012;SDS011;63567;49.956;20.130;2023-05-08T15:07:37;4.13;;;2.28;;
75012;SDS011;63567;49.956;20.130;2023-05-08T15:10:03;3.88;;;2.28;;
75012;SDS011;63567;49.956;20.130;2023-05-08T15:12:29;3.38;;;2.30;;
75012;SDS011;63567;49.956;20.130;2023-05-08T15:14:54;3.38;;;2.33;;
75012;SDS011;63567;49.956;20.130;2023-05-08T15:17:20;3.63;;;2.55;;
75012;SDS011;63567;49.956;20.130;2023-05-08T15:19:45;4.23;;;2.70;;
75012;SDS011;63567;49.956;20.130;2023-05-08T15:22:11;5.85;;;2.58;;
75012;SDS011;63567;49.956;20.130;2023-05-08T15:24:36;5.00;;;2.97;;
75012;SDS011;63567;49.956;20.130;2023-05-08T15:27:02;5.83;;;2.77;;
75012;SDS011;63567;49.956;20.130;2023-05-08T15:29:27;4.28;;;2.72;;